sensor_id;sensor_type;location;lat;lon;timestamp;temperature;humidity
25512;DHT22;13414;44.534;18.700;2022-12-07T00:00:55;7.80;99.90
25512;DHT22;13414;44.534;18.700;2022-12-07T00:03:22;7.80;99.90
25512;DHT22;13414;44.534;18.700;2022-12-07T00:05:51;7.70;99.90
25512;DHT22;13414;44.534;18.700;2022-12-07T00:08:19;7.70;99.90
25512;DHT22;13414;44.534;18.700;2022-12-07T00:10:46;7.70;99.90
25512;DHT22;13414;44.534;18.700;2022-12-07T00:13:13;7.70;99.90
25512;DHT22;13414;44.534;18.700;2022-12-07T00:15:41;7.70;99.90
25512;DHT22;13414;44.534;18.700;2022-12-07T00:18:08;7.80;99.90
25512;DHT22;13414;44.534;18.700;2022-12-07T00:20:35;7.90;99.90
25512;DHT22;13414;44.534;18.700;2022-12-07T00:23:04;8.00;99.90
25512;DHT22;13414;44.534;18.700;2022-12-07T00:25:31;8.10;99.90
25512;DHT22;13414;44.534;18.700;2022-12-07T00:27:59;8.20;99.90
25512;DHT22;13414;44.534;18.700;2022-12-07T00:30:26;8.20;99.90
25512;DHT22;13414;44.534;18.700;2022-12-07T00:32:53;8.20;99.90
25512;DHT22;13414;44.534;18.700;2022-12-07T00:35:21;8.20;99.90
25512;DHT22;13414;44.534;18.700;2022-12-07T00:37:48;8.10;99.90
25512;DHT22;13414;44.534;18.700;2022-12-07T00:40:17;8.10;99.90
25512;DHT22;13414;44.534;18.700;2022-12-07T00:42:44;8.10;99.90
25512;DHT22;13414;44.534;18.700;2022-12-07T00:45:12;8.00;99.90
25512;DHT22;13414;44.534;18.700;2022-12-07T00:47:46;8.00;99.90
25512;DHT22;13414;44.534;18.700;2022-12-07T00:50:14;8.00;99.90
25512;DHT22;13414;44.534;18.700;2022-12-07T00:52:41;8.00;99.90
25512;DHT22;13414;44.534;18.700;2022-12-07T00:55:08;7.90;99.90
25512;DHT22;13414;44.534;18.700;2022-12-07T00:57:39;7.90;99.90
25512;DHT22;13414;44.534;18.700;2022-12-07T01:00:07;7.80;99.90
25512;DHT22;13414;44.534;18.700;2022-12-07T01:02:35;7.60;99.90
25512;DHT22;13414;44.534;18.700;2022-12-07T01:05:02;7.60;99.90
25512;DHT22;13414;44.534;18.700;2022-12-07T01:07:30;7.50;99.90
25512;DHT22;13414;44.534;18.700;2022-12-07T01:09:58;7.40;99.90
25512;DHT22;13414;44.534;18.700;2022-12-07T01:12:25;7.30;99.90
25512;DHT22;13414;44.534;18.700;2022-12-07T01:14:54;7.30;99.90
25512;DHT22;13414;44.534;18.700;2022-12-07T01:17:21;7.20;99.90
25512;DHT22;13414;44.534;18.700;2022-12-07T01:19:48;7.20;99.90
25512;DHT22;13414;44.534;18.700;2022-12-07T01:22:16;7.20;99.90
25512;DHT22;13414;44.534;18.700;2022-12-07T01:24:43;7.20;99.90
25512;DHT22;13414;44.534;18.700;2022-12-07T01:27:12;7.20;99.90
25512;DHT22;13414;44.534;18.700;2022-12-07T01:29:40;7.20;99.90
25512;DHT22;13414;44.534;18.700;2022-12-07T01:32:09;7.20;99.90
25512;DHT22;13414;44.534;18.700;2022-12-07T01:34:37;7.20;99.90
25512;DHT22;13414;44.534;18.700;2022-12-07T01:37:04;7.30;99.90
25512;DHT22;13414;44.534;18.700;2022-12-07T01:39:31;7.40;99.90
25512;DHT22;13414;44.534;18.700;2022-12-07T01:41:59;7.50;99.90
25512;DHT22;13414;44.534;18.700;2022-12-07T01:44:27;7.50;99.90
25512;DHT22;13414;44.534;18.700;2022-12-07T01:46:56;7.50;99.90
25512;DHT22;13414;44.534;18.700;2022-12-07T01:49:30;7.60;99.90
25512;DHT22;13414;44.534;18.700;2022-12-07T01:52:06;7.60;99.90
25512;DHT22;13414;44.534;18.700;2022-12-07T01:54:36;7.60;99.90
25512;DHT22;13414;44.534;18.700;2022-12-07T01:57:06;7.60;99.90
25512;DHT22;13414;44.534;18.700;2022-12-07T01:59:35;7.70;99.90
25512;DHT22;13414;44.534;18.700;2022-12-07T02:02:05;7.80;99.90
25512;DHT22;13414;44.534;18.700;2022-12-07T02:04:36;7.90;99.90
25512;DHT22;13414;44.534;18.700;2022-12-07T02:07:05;7.90;99.90
25512;DHT22;13414;44.534;18.700;2022-12-07T02:09:33;8.00;99.90
25512;DHT22;13414;44.534;18.700;2022-12-07T02:12:01;8.00;99.90
25512;DHT22;13414;44.534;18.700;2022-12-07T02:14:29;8.00;99.90
25512;DHT22;13414;44.534;18.700;2022-12-07T02:17:06;8.00;99.90
25512;DHT22;13414;44.534;18.700;2022-12-07T02:20:04;8.00;99.90
25512;DHT22;13414;44.534;18.700;2022-12-07T02:22:58;7.90;99.90
25512;DHT22;13414;44.534;18.700;2022-12-07T02:25:39;7.80;99.90
25512;DHT22;13414;44.534;18.700;2022-12-07T02:28:16;7.90;99.90
25512;DHT22;13414;44.534;18.700;2022-12-07T02:30:47;7.80;99.90
25512;DHT22;13414;44.534;18.700;2022-12-07T02:33:18;7.80;99.90
25512;DHT22;13414;44.534;18.700;2022-12-07T02:35:55;7.80;99.90
25512;DHT22;13414;44.534;18.700;2022-12-07T02:38:28;7.70;99.90
25512;DHT22;13414;44.534;18.700;2022-12-07T02:41:04;7.70;99.90
25512;DHT22;13414;44.534;18.700;2022-12-07T02:43:35;7.70;99.90
25512;DHT22;13414;44.534;18.700;2022-12-07T02:46:08;7.70;99.90
25512;DHT22;13414;44.534;18.700;2022-12-07T02:48:37;7.70;99.90
25512;DHT22;13414;44.534;18.700;2022-12-07T02:51:06;7.80;99.90
25512;DHT22;13414;44.534;18.700;2022-12-07T02:53:35;7.80;99.90
25512;DHT22;13414;44.534;18.700;2022-12-07T02:56:07;7.80;99.90
25512;DHT22;13414;44.534;18.700;2022-12-07T02:58:50;7.80;99.90
25512;DHT22;13414;44.534;18.700;2022-12-07T03:01:28;7.80;99.90
25512;DHT22;13414;44.534;18.700;2022-12-07T03:04:11;7.80;99.90
25512;DHT22;13414;44.534;18.700;2022-12-07T03:06:45;7.80;99.90
25512;DHT22;13414;44.534;18.700;2022-12-07T03:09:21;7.80;99.90
25512;DHT22;13414;44.534;18.700;2022-12-07T03:11:58;7.80;99.90
25512;DHT22;13414;44.534;18.700;2022-12-07T03:14:30;7.80;99.90
25512;DHT22;13414;44.534;18.700;2022-12-07T03:17:04;7.80;99.90
25512;DHT22;13414;44.534;18.700;2022-12-07T03:19:35;7.90;99.90
25512;DHT22;13414;44.534;18.700;2022-12-07T03:22:06;7.90;99.90
25512;DHT22;13414;44.534;18.700;2022-12-07T03:24:38;7.90;99.90
25512;DHT22;13414;44.534;18.700;2022-12-07T03:27:09;8.00;99.90
25512;DHT22;13414;44.534;18.700;2022-12-07T03:29:42;8.00;99.90
25512;DHT22;13414;44.534;18.700;2022-12-07T03:32:16;8.00;99.90
25512;DHT22;13414;44.534;18.700;2022-12-07T03:34:49;7.90;99.90
25512;DHT22;13414;44.534;18.700;2022-12-07T03:37:23;7.90;99.90
25512;DHT22;13414;44.534;18.700;2022-12-07T03:39:58;7.90;99.90
25512;DHT22;13414;44.534;18.700;2022-12-07T03:42:29;7.90;99.90
25512;DHT22;13414;44.534;18.700;2022-12-07T03:44:58;7.90;99.90
25512;DHT22;13414;44.534;18.700;2022-12-07T03:47:31;7.90;99.90
25512;DHT22;13414;44.534;18.700;2022-12-07T03:50:04;7.90;99.90
25512;DHT22;13414;44.534;18.700;2022-12-07T03:52:37;8.00;99.90
25512;DHT22;13414;44.534;18.700;2022-12-07T03:55:10;8.00;99.90
25512;DHT22;13414;44.534;18.700;2022-12-07T03:57:39;8.00;99.90
25512;DHT22;13414;44.534;18.700;2022-12-07T04:00:10;8.00;99.90
25512;DHT22;13414;44.534;18.700;2022-12-07T04:02:42;8.00;99.90
25512;DHT22;13414;44.534;18.700;2022-12-07T04:05:10;8.00;99.90
25512;DHT22;13414;44.534;18.700;2022-12-07T04:07:38;8.10;99.90
25512;DHT22;13414;44.534;18.700;2022-12-07T04:10:06;8.10;99.90
25512;DHT22;13414;44.534;18.700;2022-12-07T04:12:34;8.10;99.90
25512;DHT22;13414;44.534;18.700;2022-12-07T04:15:01;8.10;99.90
25512;DHT22;13414;44.534;18.700;2022-12-07T04:17:29;8.10;99.90
25512;DHT22;13414;44.534;18.700;2022-12-07T04:19:58;8.00;99.90
25512;DHT22;13414;44.534;18.700;2022-12-07T04:22:25;8.10;99.90
25512;DHT22;13414;44.534;18.700;2022-12-07T04:24:53;8.10;99.90
25512;DHT22;13414;44.534;18.700;2022-12-07T04:27:20;8.00;99.90
25512;DHT22;13414;44.534;18.700;2022-12-07T04:29:48;8.00;99.90
25512;DHT22;13414;44.534;18.700;2022-12-07T04:32:15;8.10;99.90
25512;DHT22;13414;44.534;18.700;2022-12-07T04:34:43;8.10;99.90
25512;DHT22;13414;44.534;18.700;2022-12-07T04:37:11;8.10;99.90
25512;DHT22;13414;44.534;18.700;2022-12-07T04:39:39;8.00;99.90
25512;DHT22;13414;44.534;18.700;2022-12-07T04:42:06;7.90;99.90
25512;DHT22;13414;44.534;18.700;2022-12-07T04:44:34;7.80;99.90
25512;DHT22;13414;44.534;18.700;2022-12-07T04:47:02;7.70;99.90
25512;DHT22;13414;44.534;18.700;2022-12-07T04:49:29;7.70;99.90
25512;DHT22;13414;44.534;18.700;2022-12-07T04:51:56;7.70;99.90
25512;DHT22;13414;44.534;18.700;2022-12-07T04:54:25;7.70;99.90
25512;DHT22;13414;44.534;18.700;2022-12-07T04:56:52;7.70;99.90
25512;DHT22;13414;44.534;18.700;2022-12-07T04:59:20;7.70;99.90
25512;DHT22;13414;44.534;18.700;2022-12-07T05:01:47;7.60;99.90
25512;DHT22;13414;44.534;18.700;2022-12-07T05:04:15;7.60;99.90
25512;DHT22;13414;44.534;18.700;2022-12-07T05:06:43;7.70;99.90
25512;DHT22;13414;44.534;18.700;2022-12-07T05:09:12;7.70;99.90
25512;DHT22;13414;44.534;18.700;2022-12-07T05:11:40;7.70;99.90
25512;DHT22;13414;44.534;18.700;2022-12-07T05:14:12;7.70;99.90
25512;DHT22;13414;44.534;18.700;2022-12-07T05:16:39;7.60;99.90
25512;DHT22;13414;44.534;18.700;2022-12-07T05:19:07;7.60;99.90
25512;DHT22;13414;44.534;18.700;2022-12-07T05:21:35;7.50;99.90
25512;DHT22;13414;44.534;18.700;2022-12-07T05:24:03;7.50;99.90
25512;DHT22;13414;44.534;18.700;2022-12-07T05:26:31;7.50;99.90
25512;DHT22;13414;44.534;18.700;2022-12-07T05:29:00;7.50;99.90
25512;DHT22;13414;44.534;18.700;2022-12-07T05:31:27;7.60;99.90
25512;DHT22;13414;44.534;18.700;2022-12-07T05:33:55;7.60;99.90
25512;DHT22;13414;44.534;18.700;2022-12-07T05:36:22;7.70;99.90
25512;DHT22;13414;44.534;18.700;2022-12-07T05:38:50;7.80;99.90
25512;DHT22;13414;44.534;18.700;2022-12-07T05:41:18;7.80;99.90
25512;DHT22;13414;44.534;18.700;2022-12-07T05:44:05;7.80;99.90
25512;DHT22;13414;44.534;18.700;2022-12-07T05:46:33;7.80;99.90
25512;DHT22;13414;44.534;18.700;2022-12-07T05:49:00;7.80;99.90
25512;DHT22;13414;44.534;18.700;2022-12-07T05:51:28;7.80;99.90
25512;DHT22;13414;44.534;18.700;2022-12-07T05:53:55;7.90;99.90
25512;DHT22;13414;44.534;18.700;2022-12-07T05:56:23;8.00;99.90
25512;DHT22;13414;44.534;18.700;2022-12-07T05:58:50;8.00;99.90
25512;DHT22;13414;44.534;18.700;2022-12-07T06:01:38;8.00;99.90
25512;DHT22;13414;44.534;18.700;2022-12-07T06:04:06;7.90;99.90
25512;DHT22;13414;44.534;18.700;2022-12-07T06:06:33;7.80;99.90
25512;DHT22;13414;44.534;18.700;2022-12-07T06:09:00;7.90;99.90
25512;DHT22;13414;44.534;18.700;2022-12-07T06:11:28;7.90;99.90
25512;DHT22;13414;44.534;18.700;2022-12-07T06:14:12;7.90;99.90
25512;DHT22;13414;44.534;18.700;2022-12-07T06:16:41;7.90;99.90
25512;DHT22;13414;44.534;18.700;2022-12-07T06:19:09;7.90;99.90
25512;DHT22;13414;44.534;18.700;2022-12-07T06:21:36;7.80;99.90
25512;DHT22;13414;44.534;18.700;2022-12-07T06:24:04;7.80;99.90
25512;DHT22;13414;44.534;18.700;2022-12-07T06:26:32;7.80;99.90
25512;DHT22;13414;44.534;18.700;2022-12-07T06:28:59;7.70;99.90
25512;DHT22;13414;44.534;18.700;2022-12-07T06:31:26;7.70;99.90
25512;DHT22;13414;44.534;18.700;2022-12-07T06:33:59;7.80;99.90
25512;DHT22;13414;44.534;18.700;2022-12-07T06:36:27;7.80;99.90
25512;DHT22;13414;44.534;18.700;2022-12-07T06:38:54;7.80;99.90
25512;DHT22;13414;44.534;18.700;2022-12-07T06:41:22;7.80;99.90
25512;DHT22;13414;44.534;18.700;2022-12-07T06:43:50;7.70;99.90
25512;DHT22;13414;44.534;18.700;2022-12-07T06:46:18;7.80;99.90
25512;DHT22;13414;44.534;18.700;2022-12-07T06:48:45;7.80;99.90
25512;DHT22;13414;44.534;18.700;2022-12-07T06:51:15;7.80;99.90
25512;DHT22;13414;44.534;18.700;2022-12-07T06:53:42;7.80;99.90
25512;DHT22;13414;44.534;18.700;2022-12-07T06:56:09;7.80;99.90
25512;DHT22;13414;44.534;18.700;2022-12-07T06:58:37;7.70;99.90
25512;DHT22;13414;44.534;18.700;2022-12-07T07:01:09;7.70;99.90
25512;DHT22;13414;44.534;18.700;2022-12-07T07:03:36;7.70;99.90
25512;DHT22;13414;44.534;18.700;2022-12-07T07:06:04;7.60;99.90
25512;DHT22;13414;44.534;18.700;2022-12-07T07:08:33;7.60;99.90
25512;DHT22;13414;44.534;18.700;2022-12-07T07:11:02;7.60;99.90
25512;DHT22;13414;44.534;18.700;2022-12-07T07:13:29;7.60;99.90
25512;DHT22;13414;44.534;18.700;2022-12-07T07:15:57;7.60;99.90
25512;DHT22;13414;44.534;18.700;2022-12-07T07:18:25;7.60;99.90
25512;DHT22;13414;44.534;18.700;2022-12-07T07:20:52;7.60;99.90
25512;DHT22;13414;44.534;18.700;2022-12-07T07:23:21;7.60;99.90
25512;DHT22;13414;44.534;18.700;2022-12-07T07:25:50;7.50;99.90
25512;DHT22;13414;44.534;18.700;2022-12-07T07:28:17;7.50;99.90
25512;DHT22;13414;44.534;18.700;2022-12-07T07:30:45;7.50;99.90
25512;DHT22;13414;44.534;18.700;2022-12-07T07:33:12;7.50;99.90
25512;DHT22;13414;44.534;18.700;2022-12-07T07:35:40;7.50;99.90
25512;DHT22;13414;44.534;18.700;2022-12-07T07:38:08;7.50;99.90
25512;DHT22;13414;44.534;18.700;2022-12-07T07:40:35;7.60;99.90
25512;DHT22;13414;44.534;18.700;2022-12-07T07:43:04;7.60;99.90
25512;DHT22;13414;44.534;18.700;2022-12-07T07:45:31;7.60;99.90
25512;DHT22;13414;44.534;18.700;2022-12-07T07:47:59;7.60;99.90
25512;DHT22;13414;44.534;18.700;2022-12-07T07:50:26;7.50;99.90
25512;DHT22;13414;44.534;18.700;2022-12-07T07:52:53;7.60;99.90
25512;DHT22;13414;44.534;18.700;2022-12-07T07:55:21;7.50;99.90
25512;DHT22;13414;44.534;18.700;2022-12-07T07:57:48;7.60;99.90
25512;DHT22;13414;44.534;18.700;2022-12-07T08:00:18;7.70;99.90
25512;DHT22;13414;44.534;18.700;2022-12-07T08:02:45;7.60;99.90
25512;DHT22;13414;44.534;18.700;2022-12-07T08:05:13;7.70;99.90
25512;DHT22;13414;44.534;18.700;2022-12-07T08:07:41;7.70;99.90
25512;DHT22;13414;44.534;18.700;2022-12-07T08:10:11;7.70;99.90
25512;DHT22;13414;44.534;18.700;2022-12-07T08:12:40;7.80;99.90
25512;DHT22;13414;44.534;18.700;2022-12-07T08:15:25;7.80;99.90
25512;DHT22;13414;44.534;18.700;2022-12-07T08:17:52;7.80;99.90
25512;DHT22;13414;44.534;18.700;2022-12-07T08:20:22;7.90;99.90
25512;DHT22;13414;44.534;18.700;2022-12-07T08:22:49;7.90;99.90
25512;DHT22;13414;44.534;18.700;2022-12-07T08:25:16;7.90;99.90
25512;DHT22;13414;44.534;18.700;2022-12-07T08:27:44;7.90;99.90
25512;DHT22;13414;44.534;18.700;2022-12-07T08:30:11;7.80;99.90
25512;DHT22;13414;44.534;18.700;2022-12-07T08:32:40;7.70;99.90
25512;DHT22;13414;44.534;18.700;2022-12-07T08:35:08;7.80;99.90
25512;DHT22;13414;44.534;18.700;2022-12-07T08:37:36;7.80;99.90
25512;DHT22;13414;44.534;18.700;2022-12-07T08:42:39;7.80;99.90
25512;DHT22;13414;44.534;18.700;2022-12-07T08:45:08;7.90;99.90
25512;DHT22;13414;44.534;18.700;2022-12-07T08:47:39;7.90;99.90
25512;DHT22;13414;44.534;18.700;2022-12-07T08:50:10;8.00;99.90
25512;DHT22;13414;44.534;18.700;2022-12-07T08:52:39;8.10;99.90
25512;DHT22;13414;44.534;18.700;2022-12-07T08:55:10;8.10;99.90
25512;DHT22;13414;44.534;18.700;2022-12-07T08:57:38;8.20;99.90
25512;DHT22;13414;44.534;18.700;2022-12-07T09:00:07;8.10;99.90
25512;DHT22;13414;44.534;18.700;2022-12-07T09:02:35;8.10;99.90
25512;DHT22;13414;44.534;18.700;2022-12-07T09:05:03;8.10;99.90
25512;DHT22;13414;44.534;18.700;2022-12-07T09:07:32;7.90;99.90
25512;DHT22;13414;44.534;18.700;2022-12-07T09:10:01;8.00;99.90
25512;DHT22;13414;44.534;18.700;2022-12-07T09:12:28;8.10;99.90
25512;DHT22;13414;44.534;18.700;2022-12-07T09:14:55;8.20;99.90
25512;DHT22;13414;44.534;18.700;2022-12-07T09:17:23;8.20;99.90
25512;DHT22;13414;44.534;18.700;2022-12-07T09:19:50;8.20;99.90
25512;DHT22;13414;44.534;18.700;2022-12-07T09:22:17;8.30;99.90
25512;DHT22;13414;44.534;18.700;2022-12-07T09:24:46;8.30;99.90
25512;DHT22;13414;44.534;18.700;2022-12-07T09:27:14;8.30;99.90
25512;DHT22;13414;44.534;18.700;2022-12-07T09:29:43;8.30;99.90
25512;DHT22;13414;44.534;18.700;2022-12-07T09:32:10;8.20;99.90
25512;DHT22;13414;44.534;18.700;2022-12-07T09:34:38;8.30;99.90
25512;DHT22;13414;44.534;18.700;2022-12-07T09:37:06;8.30;99.90
25512;DHT22;13414;44.534;18.700;2022-12-07T09:39:34;8.40;99.90
25512;DHT22;13414;44.534;18.700;2022-12-07T09:42:05;8.40;99.90
25512;DHT22;13414;44.534;18.700;2022-12-07T09:44:34;8.40;99.90
25512;DHT22;13414;44.534;18.700;2022-12-07T09:47:02;8.40;99.90
25512;DHT22;13414;44.534;18.700;2022-12-07T09:49:31;8.30;99.90
25512;DHT22;13414;44.534;18.700;2022-12-07T09:52:01;8.40;99.90
25512;DHT22;13414;44.534;18.700;2022-12-07T09:54:30;8.50;99.90
25512;DHT22;13414;44.534;18.700;2022-12-07T09:56:58;8.60;99.90
25512;DHT22;13414;44.534;18.700;2022-12-07T09:59:28;8.80;99.90
25512;DHT22;13414;44.534;18.700;2022-12-07T10:01:56;9.00;99.90
25512;DHT22;13414;44.534;18.700;2022-12-07T10:04:44;9.20;99.90
25512;DHT22;13414;44.534;18.700;2022-12-07T10:07:12;9.30;99.90
25512;DHT22;13414;44.534;18.700;2022-12-07T10:09:39;9.20;99.90
25512;DHT22;13414;44.534;18.700;2022-12-07T10:12:09;9.20;99.90
25512;DHT22;13414;44.534;18.700;2022-12-07T10:14:48;9.10;99.90
25512;DHT22;13414;44.534;18.700;2022-12-07T10:17:31;9.00;99.90
25512;DHT22;13414;44.534;18.700;2022-12-07T10:20:17;9.00;99.90
25512;DHT22;13414;44.534;18.700;2022-12-07T10:22:55;9.00;99.90
25512;DHT22;13414;44.534;18.700;2022-12-07T10:25:25;9.20;99.90
25512;DHT22;13414;44.534;18.700;2022-12-07T10:28:17;9.00;99.90
25512;DHT22;13414;44.534;18.700;2022-12-07T10:30:52;9.00;99.90
25512;DHT22;13414;44.534;18.700;2022-12-07T10:33:30;9.00;99.90
25512;DHT22;13414;44.534;18.700;2022-12-07T10:35:59;9.10;99.90
25512;DHT22;13414;44.534;18.700;2022-12-07T10:38:28;9.10;99.90
25512;DHT22;13414;44.534;18.700;2022-12-07T10:41:06;9.20;99.90
25512;DHT22;13414;44.534;18.700;2022-12-07T10:43:34;9.20;99.90
25512;DHT22;13414;44.534;18.700;2022-12-07T10:46:34;9.30;99.90
25512;DHT22;13414;44.534;18.700;2022-12-07T10:49:26;9.40;99.90
25512;DHT22;13414;44.534;18.700;2022-12-07T10:52:03;9.40;99.90
25512;DHT22;13414;44.534;18.700;2022-12-07T10:54:40;9.40;99.90
25512;DHT22;13414;44.534;18.700;2022-12-07T10:57:22;9.50;99.90
25512;DHT22;13414;44.534;18.700;2022-12-07T11:00:02;9.50;99.90
25512;DHT22;13414;44.534;18.700;2022-12-07T11:02:42;9.50;99.90
25512;DHT22;13414;44.534;18.700;2022-12-07T11:05:20;9.50;99.90
25512;DHT22;13414;44.534;18.700;2022-12-07T11:08:00;9.50;99.90
25512;DHT22;13414;44.534;18.700;2022-12-07T11:10:39;9.50;99.90
25512;DHT22;13414;44.534;18.700;2022-12-07T11:13:20;9.50;99.90
25512;DHT22;13414;44.534;18.700;2022-12-07T11:16:05;9.50;99.90
25512;DHT22;13414;44.534;18.700;2022-12-07T11:18:42;9.50;99.90
25512;DHT22;13414;44.534;18.700;2022-12-07T11:21:23;9.50;99.90
25512;DHT22;13414;44.534;18.700;2022-12-07T11:24:00;9.50;99.90
25512;DHT22;13414;44.534;18.700;2022-12-07T11:26:51;9.50;99.90
25512;DHT22;13414;44.534;18.700;2022-12-07T11:29:50;9.40;99.90
25512;DHT22;13414;44.534;18.700;2022-12-07T11:32:28;9.40;99.90
25512;DHT22;13414;44.534;18.700;2022-12-07T11:35:09;9.40;99.90
25512;DHT22;13414;44.534;18.700;2022-12-07T11:37:38;9.50;99.90
25512;DHT22;13414;44.534;18.700;2022-12-07T11:40:19;9.50;99.90
25512;DHT22;13414;44.534;18.700;2022-12-07T11:42:53;9.50;99.90
25512;DHT22;13414;44.534;18.700;2022-12-07T11:45:27;9.60;99.90
25512;DHT22;13414;44.534;18.700;2022-12-07T11:48:00;9.60;99.90
25512;DHT22;13414;44.534;18.700;2022-12-07T11:50:33;9.60;99.90
25512;DHT22;13414;44.534;18.700;2022-12-07T11:53:09;9.60;99.90
25512;DHT22;13414;44.534;18.700;2022-12-07T11:55:43;9.60;99.90
25512;DHT22;13414;44.534;18.700;2022-12-07T11:58:28;9.60;99.90
25512;DHT22;13414;44.534;18.700;2022-12-07T12:01:08;9.60;99.90
25512;DHT22;13414;44.534;18.700;2022-12-07T12:03:42;9.60;99.90
25512;DHT22;13414;44.534;18.700;2022-12-07T12:06:12;9.60;99.90
25512;DHT22;13414;44.534;18.700;2022-12-07T12:08:45;9.80;99.90
25512;DHT22;13414;44.534;18.700;2022-12-07T12:11:25;9.80;99.90
25512;DHT22;13414;44.534;18.700;2022-12-07T12:14:24;9.90;99.90
25512;DHT22;13414;44.534;18.700;2022-12-07T12:17:27;9.90;99.90
25512;DHT22;13414;44.534;18.700;2022-12-07T12:20:01;9.90;99.90
25512;DHT22;13414;44.534;18.700;2022-12-07T12:22:37;9.90;99.90
25512;DHT22;13414;44.534;18.700;2022-12-07T12:25:07;9.90;99.90
25512;DHT22;13414;44.534;18.700;2022-12-07T12:27:45;9.90;99.90
25512;DHT22;13414;44.534;18.700;2022-12-07T12:30:35;9.90;99.90
25512;DHT22;13414;44.534;18.700;2022-12-07T12:33:11;9.80;99.90
25512;DHT22;13414;44.534;18.700;2022-12-07T12:35:40;9.80;99.90
25512;DHT22;13414;44.534;18.700;2022-12-07T12:38:38;9.70;99.90
25512;DHT22;13414;44.534;18.700;2022-12-07T12:45:03;9.60;99.90
25512;DHT22;13414;44.534;18.700;2022-12-07T12:47:42;9.60;99.90
25512;DHT22;13414;44.534;18.700;2022-12-07T12:50:18;9.50;99.90
25512;DHT22;13414;44.534;18.700;2022-12-07T12:52:53;9.50;99.90
25512;DHT22;13414;44.534;18.700;2022-12-07T12:58:36;9.50;99.90
25512;DHT22;13414;44.534;18.700;2022-12-07T13:03:54;9.50;99.90
25512;DHT22;13414;44.534;18.700;2022-12-07T13:06:34;9.60;99.90
25512;DHT22;13414;44.534;18.700;2022-12-07T13:09:04;9.60;99.90
25512;DHT22;13414;44.534;18.700;2022-12-07T13:11:35;9.60;99.90
25512;DHT22;13414;44.534;18.700;2022-12-07T13:14:39;9.50;99.90
25512;DHT22;13414;44.534;18.700;2022-12-07T13:17:08;9.50;99.90
25512;DHT22;13414;44.534;18.700;2022-12-07T13:19:53;9.50;99.90
25512;DHT22;13414;44.534;18.700;2022-12-07T13:22:49;9.60;99.90
25512;DHT22;13414;44.534;18.700;2022-12-07T13:25:29;9.60;99.90
25512;DHT22;13414;44.534;18.700;2022-12-07T13:28:07;9.60;99.90
25512;DHT22;13414;44.534;18.700;2022-12-07T13:30:45;9.60;99.90
25512;DHT22;13414;44.534;18.700;2022-12-07T13:33:17;9.60;99.90
25512;DHT22;13414;44.534;18.700;2022-12-07T13:35:45;9.50;99.90
25512;DHT22;13414;44.534;18.700;2022-12-07T13:38:25;9.50;99.90
25512;DHT22;13414;44.534;18.700;2022-12-07T13:41:03;9.60;99.90
25512;DHT22;13414;44.534;18.700;2022-12-07T13:43:43;9.50;99.90
25512;DHT22;13414;44.534;18.700;2022-12-07T13:46:11;9.50;99.90
25512;DHT22;13414;44.534;18.700;2022-12-07T13:48:45;9.50;99.90
25512;DHT22;13414;44.534;18.700;2022-12-07T13:51:21;9.40;99.90
25512;DHT22;13414;44.534;18.700;2022-12-07T13:53:52;9.50;99.90
25512;DHT22;13414;44.534;18.700;2022-12-07T13:56:22;9.40;99.90
25512;DHT22;13414;44.534;18.700;2022-12-07T13:58:54;9.50;99.90
25512;DHT22;13414;44.534;18.700;2022-12-07T14:01:23;9.50;99.90
25512;DHT22;13414;44.534;18.700;2022-12-07T14:03:51;9.40;99.90
25512;DHT22;13414;44.534;18.700;2022-12-07T14:06:25;9.40;99.90
25512;DHT22;13414;44.534;18.700;2022-12-07T14:09:17;9.40;99.90
25512;DHT22;13414;44.534;18.700;2022-12-07T14:11:45;9.30;99.90
25512;DHT22;13414;44.534;18.700;2022-12-07T14:14:18;9.30;99.90
25512;DHT22;13414;44.534;18.700;2022-12-07T14:16:56;9.10;99.90
25512;DHT22;13414;44.534;18.700;2022-12-07T14:19:46;9.00;99.90
25512;DHT22;13414;44.534;18.700;2022-12-07T14:22:31;8.80;99.90
25512;DHT22;13414;44.534;18.700;2022-12-07T14:27:57;8.80;99.90
25512;DHT22;13414;44.534;18.700;2022-12-07T14:30:29;8.70;99.90
25512;DHT22;13414;44.534;18.700;2022-12-07T14:32:59;8.60;99.90
25512;DHT22;13414;44.534;18.700;2022-12-07T14:35:27;8.60;99.90
25512;DHT22;13414;44.534;18.700;2022-12-07T14:37:55;8.70;99.90
25512;DHT22;13414;44.534;18.700;2022-12-07T14:40:24;8.70;99.90
25512;DHT22;13414;44.534;18.700;2022-12-07T14:42:55;8.70;99.90
25512;DHT22;13414;44.534;18.700;2022-12-07T14:45:24;8.70;99.90
25512;DHT22;13414;44.534;18.700;2022-12-07T14:47:53;8.80;99.90
25512;DHT22;13414;44.534;18.700;2022-12-07T14:50:21;8.70;99.90
25512;DHT22;13414;44.534;18.700;2022-12-07T14:52:55;8.60;99.90
25512;DHT22;13414;44.534;18.700;2022-12-07T14:55:25;8.60;99.90
25512;DHT22;13414;44.534;18.700;2022-12-07T14:57:54;8.60;99.90
25512;DHT22;13414;44.534;18.700;2022-12-07T15:00:24;8.50;99.90
25512;DHT22;13414;44.534;18.700;2022-12-07T15:02:55;8.50;99.90
25512;DHT22;13414;44.534;18.700;2022-12-07T15:05:23;8.50;99.90
25512;DHT22;13414;44.534;18.700;2022-12-07T15:07:51;8.60;99.90
25512;DHT22;13414;44.534;18.700;2022-12-07T15:10:22;8.60;99.90
25512;DHT22;13414;44.534;18.700;2022-12-07T15:12:49;8.60;99.90
25512;DHT22;13414;44.534;18.700;2022-12-07T15:15:17;8.60;99.90
25512;DHT22;13414;44.534;18.700;2022-12-07T15:17:44;8.60;99.90
25512;DHT22;13414;44.534;18.700;2022-12-07T15:20:14;8.50;99.90
25512;DHT22;13414;44.534;18.700;2022-12-07T15:22:42;8.50;99.90
25512;DHT22;13414;44.534;18.700;2022-12-07T15:25:12;8.40;99.90
25512;DHT22;13414;44.534;18.700;2022-12-07T15:27:40;8.30;99.90
25512;DHT22;13414;44.534;18.700;2022-12-07T15:30:08;8.10;99.90
25512;DHT22;13414;44.534;18.700;2022-12-07T15:32:36;7.90;99.90
25512;DHT22;13414;44.534;18.700;2022-12-07T15:35:04;7.90;99.90
25512;DHT22;13414;44.534;18.700;2022-12-07T15:37:33;7.90;99.90
25512;DHT22;13414;44.534;18.700;2022-12-07T15:40:01;7.80;99.90
25512;DHT22;13414;44.534;18.700;2022-12-07T15:42:28;7.90;99.90
25512;DHT22;13414;44.534;18.700;2022-12-07T15:44:56;8.00;99.90
25512;DHT22;13414;44.534;18.700;2022-12-07T15:47:31;8.00;99.90
25512;DHT22;13414;44.534;18.700;2022-12-07T15:49:59;8.10;99.90
25512;DHT22;13414;44.534;18.700;2022-12-07T15:52:26;8.00;99.90
25512;DHT22;13414;44.534;18.700;2022-12-07T15:54:55;8.00;99.90
25512;DHT22;13414;44.534;18.700;2022-12-07T15:57:23;8.10;99.90
25512;DHT22;13414;44.534;18.700;2022-12-07T15:59:50;8.10;99.90
25512;DHT22;13414;44.534;18.700;2022-12-07T16:02:17;8.00;99.90
25512;DHT22;13414;44.534;18.700;2022-12-07T16:04:45;8.00;99.90
25512;DHT22;13414;44.534;18.700;2022-12-07T16:07:12;8.00;99.90
25512;DHT22;13414;44.534;18.700;2022-12-07T16:09:41;8.00;99.90
25512;DHT22;13414;44.534;18.700;2022-12-07T16:12:10;8.00;99.90